createdAt,value
2023-05-06T00:00:52.615Z,8.88
2023-05-06T00:01:52.663Z,9.13
2023-05-06T00:02:52.848Z,9.46
2023-05-06T00:03:52.907Z,9.53
2023-05-06T00:04:53.026Z,9.64
2023-05-06T00:05:52.778Z,9.27
2023-05-06T00:06:52.826Z,9.32
2023-05-06T00:07:52.863Z,9.37
2023-05-06T00:08:52.889Z,9.31
2023-05-06T00:09:52.932Z,9.80
2023-05-06T00:10:52.977Z,9.81
2023-05-06T00:11:53.044Z,9.41
2023-05-06T00:12:53.085Z,9.40
2023-05-06T00:13:53.085Z,9.82
2023-05-06T00:14:53.151Z,9.53
2023-05-06T00:15:53.211Z,9.70
2023-05-06T00:16:53.200Z,9.90
2023-05-06T00:17:53.249Z,9.94
2023-05-06T00:18:53.279Z,9.86
2023-05-06T00:19:53.349Z,9.65
2023-05-06T00:20:53.383Z,9.78
2023-05-06T00:21:53.416Z,9.93
2023-05-06T00:22:53.480Z,9.44
2023-05-06T00:23:53.491Z,10.07
2023-05-06T00:24:53.532Z,10.13
2023-05-06T00:25:53.551Z,9.63
2023-05-06T00:26:53.584Z,9.82
2023-05-06T00:27:53.627Z,9.46
2023-05-06T00:28:53.670Z,9.69
2023-05-06T00:29:53.700Z,9.38
2023-05-06T00:30:53.759Z,9.45
2023-05-06T00:31:53.835Z,9.47
2023-05-06T00:32:53.854Z,9.46
2023-05-06T00:33:53.863Z,9.39
2023-05-06T00:34:53.892Z,9.59
2023-05-06T00:35:53.941Z,9.65
2023-05-06T00:36:53.997Z,9.38
2023-05-06T00:37:54.031Z,9.33
2023-05-06T00:38:54.088Z,9.36
2023-05-06T00:39:54.120Z,9.67
2023-05-06T00:40:54.145Z,9.59
2023-05-06T00:41:54.204Z,9.40
2023-05-06T00:42:54.230Z,9.38
2023-05-06T00:43:54.270Z,9.19
2023-05-06T00:44:54.321Z,9.60
2023-05-06T00:45:54.414Z,9.06
2023-05-06T00:46:54.477Z,9.33
2023-05-06T00:47:54.499Z,9.26
2023-05-06T00:48:54.515Z,9.64
2023-05-06T00:49:54.568Z,9.35
2023-05-06T00:50:54.614Z,9.37
2023-05-06T00:51:54.634Z,9.40
2023-05-06T00:52:54.683Z,9.85
2023-05-06T00:53:54.767Z,9.80
2023-05-06T00:54:54.768Z,9.68
2023-05-06T00:55:54.825Z,9.59
2023-05-06T00:56:54.888Z,10.12
2023-05-06T00:57:54.942Z,9.97
2023-05-06T00:58:54.973Z,10.20
2023-05-06T00:59:55.031Z,10.36
2023-05-06T01:00:55.078Z,10.25
2023-05-06T01:01:55.133Z,9.84
2023-05-06T01:02:55.412Z,10.03
2023-05-06T01:03:55.601Z,10.42
2023-05-06T01:04:55.262Z,10.48
2023-05-06T01:05:55.303Z,10.14
2023-05-06T01:06:55.352Z,10.04
2023-05-06T01:07:55.392Z,9.79
2023-05-06T01:08:55.434Z,9.82
2023-05-06T01:09:55.474Z,9.50
2023-05-06T01:10:55.515Z,9.20
2023-05-06T01:11:55.588Z,9.36
2023-05-06T01:12:55.673Z,9.14
2023-05-06T01:13:55.661Z,9.02
2023-05-06T01:14:55.689Z,9.06
2023-05-06T01:15:55.790Z,9.29
2023-05-06T01:16:55.821Z,8.71
2023-05-06T01:17:55.892Z,8.93
2023-05-06T01:18:55.935Z,8.69
2023-05-06T01:19:55.936Z,8.10
2023-05-06T01:20:55.987Z,8.29
2023-05-06T01:21:56.005Z,8.32
2023-05-06T01:22:56.057Z,7.99
2023-05-06T01:23:56.113Z,7.98
2023-05-06T01:24:56.161Z,7.95
2023-05-06T01:25:56.193Z,8.07
2023-05-06T01:26:56.256Z,7.76
2023-05-06T01:27:56.285Z,7.77
2023-05-06T01:28:56.345Z,7.72
2023-05-06T01:29:56.388Z,8.07
2023-05-06T01:30:56.485Z,7.91
2023-05-06T01:31:56.487Z,7.96
2023-05-06T01:32:56.551Z,7.89
2023-05-06T01:33:56.579Z,7.75
2023-05-06T01:34:56.736Z,7.56
2023-05-06T01:35:56.651Z,7.50
2023-05-06T01:36:56.709Z,7.13
2023-05-06T01:37:56.757Z,6.96
2023-05-06T01:38:56.796Z,6.81
2023-05-06T01:39:56.831Z,6.93
2023-05-06T01:40:56.883Z,7.18
2023-05-06T01:41:56.953Z,6.97
2023-05-06T01:42:57.006Z,7.05
2023-05-06T01:43:57.033Z,6.83
2023-05-06T01:44:57.102Z,6.99
2023-05-06T01:45:57.211Z,6.95
2023-05-06T01:46:57.196Z,6.52
2023-05-06T01:47:57.291Z,6.81
2023-05-06T01:48:57.285Z,6.76
2023-05-06T01:49:57.336Z,6.89
2023-05-06T01:50:57.440Z,7.24
2023-05-06T01:51:57.415Z,6.91
2023-05-06T01:52:57.482Z,6.91
2023-05-06T01:53:57.525Z,7.07
2023-05-06T01:54:57.586Z,7.01
2023-05-06T01:55:57.632Z,6.78
2023-05-06T01:56:57.683Z,6.79
2023-05-06T01:57:57.784Z,6.81
2023-05-06T01:58:59.301Z,6.49
2023-05-06T01:59:57.861Z,6.39
2023-05-06T02:00:57.892Z,6.30
2023-05-06T02:01:57.974Z,6.48
2023-05-06T02:02:58.139Z,6.37
2023-05-06T02:03:58.114Z,6.16
2023-05-06T02:04:58.122Z,6.03
2023-05-06T02:05:58.149Z,6.10
2023-05-06T02:06:58.221Z,5.71
2023-05-06T02:07:58.277Z,5.92
2023-05-06T02:08:58.322Z,6.10
2023-05-06T02:09:58.377Z,6.13
2023-05-06T02:10:58.444Z,6.27
2023-05-06T02:11:58.487Z,6.13
2023-05-06T02:12:58.585Z,6.05
2023-05-06T02:13:58.603Z,6.45
2023-05-06T02:14:58.657Z,6.33
2023-05-06T02:15:58.743Z,6.03
2023-05-06T02:16:58.753Z,6.30
2023-05-06T02:17:58.848Z,6.26
2023-05-06T02:18:58.897Z,6.48
2023-05-06T02:19:58.950Z,6.42
2023-05-06T02:20:58.976Z,6.79
2023-05-06T02:21:59.039Z,6.86
2023-05-06T02:22:59.193Z,7.00
2023-05-06T02:23:59.156Z,7.27
2023-05-06T02:24:59.216Z,7.24
2023-05-06T02:25:59.276Z,7.08
2023-05-06T02:26:59.347Z,7.19
2023-05-06T02:27:59.393Z,7.06
2023-05-06T02:28:59.468Z,7.15
2023-05-06T02:29:59.517Z,6.85
2023-05-06T02:30:59.572Z,6.99
2023-05-06T02:31:59.699Z,7.30
2023-05-06T02:32:59.756Z,7.08
2023-05-06T02:33:59.753Z,7.18
2023-05-06T02:34:59.824Z,7.00
2023-05-06T02:35:59.880Z,7.15
2023-05-06T02:36:59.934Z,7.00
2023-05-06T02:37:59.998Z,7.10
2023-05-06T02:39:00.166Z,6.96
2023-05-06T02:40:00.134Z,6.96
2023-05-06T02:41:00.165Z,6.97
2023-05-06T02:42:00.235Z,7.26
2023-05-06T02:43:00.378Z,6.79
2023-05-06T02:44:00.362Z,6.95
2023-05-06T02:45:00.404Z,6.83
2023-05-06T02:46:00.491Z,6.63
2023-05-06T02:47:00.543Z,6.57
2023-05-06T02:48:00.694Z,6.57
2023-05-06T02:49:00.667Z,6.70
2023-05-06T02:50:00.726Z,6.72
2023-05-06T02:51:00.789Z,6.81
2023-05-06T02:52:00.833Z,6.66
2023-05-06T02:53:00.912Z,6.80
2023-05-06T02:54:00.971Z,6.96
2023-05-06T02:55:01.142Z,7.04
2023-05-06T02:56:01.076Z,6.97
2023-05-06T02:57:01.158Z,7.45
2023-05-06T02:58:01.208Z,7.57
2023-05-06T02:59:01.324Z,7.45
2023-05-06T03:00:01.337Z,7.45
2023-05-06T03:01:01.401Z,7.21
2023-05-06T03:02:01.454Z,7.28
2023-05-06T03:03:01.562Z,6.99
2023-05-06T03:04:01.613Z,7.20
2023-05-06T03:05:01.619Z,7.22
2023-05-06T03:06:01.658Z,7.15
2023-05-06T03:07:01.746Z,7.12
2023-05-06T03:08:01.791Z,7.17
2023-05-06T03:09:01.867Z,7.26
2023-05-06T03:10:01.942Z,7.18
2023-05-06T03:11:02.048Z,7.04
2023-05-06T03:12:02.055Z,7.33
2023-05-06T03:13:02.165Z,7.39
2023-05-06T03:14:02.148Z,7.34
2023-05-06T03:15:02.221Z,7.08
2023-05-06T03:16:02.279Z,7.22
2023-05-06T03:17:02.350Z,7.25
2023-05-06T03:18:02.431Z,7.41
2023-05-06T03:19:02.450Z,7.29
2023-05-06T03:20:02.514Z,7.17
2023-05-06T03:21:02.580Z,7.09
2023-05-06T03:22:02.614Z,7.30
2023-05-06T03:23:02.683Z,7.20
2023-05-06T03:24:02.747Z,7.34
2023-05-06T03:25:02.754Z,7.38
2023-05-06T03:26:02.818Z,7.41
2023-05-06T03:27:02.905Z,7.40
2023-05-06T03:28:02.928Z,7.35
2023-05-06T03:29:02.980Z,6.95
2023-05-06T03:30:03.031Z,6.77
2023-05-06T03:31:03.175Z,6.81
2023-05-06T03:32:03.151Z,7.02
2023-05-06T03:33:03.235Z,6.84
2023-05-06T03:34:03.273Z,6.83
2023-05-06T03:35:03.311Z,6.78
2023-05-06T03:36:03.361Z,6.79
2023-05-06T03:37:03.412Z,6.98
2023-05-06T03:38:03.469Z,7.09
2023-05-06T03:39:03.513Z,7.02
2023-05-06T03:40:03.583Z,7.10
2023-05-06T03:41:03.565Z,6.89
2023-05-06T03:42:03.608Z,6.85
2023-05-06T03:43:03.767Z,7.06
2023-05-06T03:44:03.666Z,7.42
2023-05-06T03:45:03.714Z,7.42
2023-05-06T03:46:03.770Z,7.32
2023-05-06T03:47:03.747Z,7.36
2023-05-06T03:48:03.822Z,7.45
2023-05-06T03:49:03.810Z,7.45
2023-05-06T03:50:03.845Z,7.41
2023-05-06T03:51:03.896Z,7.39
2023-05-06T03:52:03.912Z,7.42
2023-05-06T03:53:04.003Z,7.36
2023-05-06T03:54:03.943Z,7.38
2023-05-06T03:55:03.974Z,7.14
2023-05-06T03:56:04.027Z,7.38
2023-05-06T03:57:04.055Z,7.34
2023-05-06T03:58:04.086Z,7.33
2023-05-06T03:59:04.251Z,7.46
2023-05-06T04:00:04.149Z,7.46
2023-05-06T04:01:04.155Z,7.36
2023-05-06T04:02:04.264Z,7.37
2023-05-06T04:03:04.280Z,7.75
2023-05-06T04:04:04.296Z,7.61
2023-05-06T04:05:04.294Z,7.72
2023-05-06T04:06:04.319Z,7.80
2023-05-06T04:07:04.339Z,7.73
2023-05-06T04:08:04.360Z,7.85
2023-05-06T04:09:04.400Z,7.97
2023-05-06T04:10:04.396Z,8.07
2023-05-06T04:11:04.427Z,7.87
2023-05-06T04:12:04.468Z,8.21
2023-05-06T04:13:04.549Z,7.80
2023-05-06T04:14:04.502Z,7.74
2023-05-06T04:15:04.588Z,7.98
2023-05-06T04:16:04.604Z,7.93
2023-05-06T04:17:04.610Z,7.81
2023-05-06T04:18:04.661Z,7.66
2023-05-06T04:19:06.355Z,7.83
2023-05-06T04:20:04.661Z,7.97
2023-05-06T04:21:04.680Z,8.02
2023-05-06T04:22:04.698Z,8.36
2023-05-06T04:23:04.723Z,8.16
2023-05-06T04:24:04.761Z,8.23
2023-05-06T04:25:04.781Z,8.09
2023-05-06T04:26:04.801Z,8.24
2023-05-06T04:27:04.859Z,8.37
2023-05-06T04:28:04.906Z,8.35
2023-05-06T04:29:04.948Z,8.43
2023-05-06T04:30:04.983Z,8.41
2023-05-06T04:31:05.140Z,8.30
2023-05-06T04:32:05.115Z,8.40
2023-05-06T04:33:05.100Z,8.33
2023-05-06T04:34:05.112Z,8.22
2023-05-06T04:35:05.139Z,8.23
2023-05-06T04:36:05.152Z,8.00
2023-05-06T04:37:05.165Z,8.25
2023-05-06T04:38:05.182Z,8.26
2023-05-06T04:39:05.197Z,8.07
2023-05-06T04:40:05.242Z,8.04
2023-05-06T04:41:05.266Z,8.10
2023-05-06T04:42:05.298Z,8.01
2023-05-06T04:43:05.287Z,7.71
2023-05-06T04:44:05.317Z,7.73
2023-05-06T04:45:05.418Z,7.76
2023-05-06T04:46:05.477Z,7.71
2023-05-06T04:47:05.508Z,7.81
2023-05-06T04:48:05.583Z,7.71
2023-05-06T04:49:05.537Z,7.64
2023-05-06T04:50:05.602Z,7.68
2023-05-06T04:51:05.625Z,7.71
2023-05-06T04:52:05.637Z,7.71
2023-05-06T04:53:05.677Z,7.48
2023-05-06T04:54:05.729Z,7.44
2023-05-06T04:55:05.749Z,7.38
2023-05-06T04:56:05.796Z,7.62
2023-05-06T04:57:05.860Z,7.55
2023-05-06T04:58:05.879Z,7.49
2023-05-06T04:59:05.924Z,7.34
2023-05-06T05:00:05.924Z,7.04
2023-05-06T05:01:06.003Z,7.21
2023-05-06T05:02:06.006Z,7.08
2023-05-06T05:03:06.209Z,7.00
2023-05-06T05:04:06.052Z,6.84
2023-05-06T05:05:06.120Z,6.77
2023-05-06T05:06:06.073Z,6.72
2023-05-06T05:07:06.101Z,6.31
2023-05-06T05:08:06.104Z,6.44
2023-05-06T05:09:06.116Z,6.34
2023-05-06T05:10:06.149Z,6.52
2023-05-06T05:11:06.175Z,6.53
2023-05-06T05:12:06.177Z,6.25
2023-05-06T05:13:06.236Z,6.17
2023-05-06T05:14:06.227Z,6.10
2023-05-06T05:15:06.242Z,6.06
2023-05-06T05:16:06.227Z,5.76
2023-05-06T05:17:06.322Z,5.91
2023-05-06T05:18:06.376Z,6.08
2023-05-06T05:19:08.938Z,5.81
2023-05-06T05:20:06.324Z,5.82
2023-05-06T05:21:06.303Z,5.70
2023-05-06T05:22:06.327Z,5.56
2023-05-06T05:23:06.325Z,5.56
2023-05-06T05:24:06.307Z,5.43
2023-05-06T05:25:07.600Z,5.28
2023-05-06T05:26:06.288Z,5.22
2023-05-06T05:27:06.281Z,5.29
2023-05-06T05:28:06.296Z,4.97
2023-05-06T05:29:06.254Z,5.09
2023-05-06T05:30:06.252Z,5.05
2023-05-06T05:31:07.316Z,5.10
2023-05-06T05:32:06.264Z,5.40
2023-05-06T05:33:06.364Z,5.71
2023-05-06T05:34:06.232Z,6.23
2023-05-06T05:35:06.332Z,6.52
2023-05-06T05:36:06.214Z,6.95
2023-05-06T05:37:06.230Z,6.95
2023-05-06T05:38:06.254Z,7.21
2023-05-06T05:39:06.184Z,7.45
2023-05-06T05:40:06.191Z,7.67
2023-05-06T05:41:06.174Z,7.64
2023-05-06T05:42:06.197Z,7.92
2023-05-06T05:43:06.185Z,8.12
2023-05-06T05:44:06.217Z,8.18
2023-05-06T05:45:06.359Z,8.31
2023-05-06T05:46:06.240Z,8.45
2023-05-06T05:47:06.152Z,8.55
2023-05-06T05:48:06.250Z,8.43
2023-05-06T05:49:06.193Z,8.49
2023-05-06T05:50:06.140Z,8.42
2023-05-06T05:51:06.156Z,8.20
2023-05-06T05:52:06.113Z,8.23
2023-05-06T05:53:06.107Z,8.10
2023-05-06T05:54:06.098Z,7.96
2023-05-06T05:55:06.106Z,7.72
2023-05-06T05:56:06.088Z,7.55
2023-05-06T05:57:06.084Z,7.56
2023-05-06T05:58:06.074Z,7.58
2023-05-06T05:59:06.081Z,7.49
2023-05-06T06:00:06.048Z,7.62
2023-05-06T06:01:06.053Z,7.60
2023-05-06T06:02:06.060Z,7.67
2023-05-06T06:03:06.087Z,7.63
2023-05-06T06:04:06.171Z,7.64
2023-05-06T06:05:06.029Z,7.61
2023-05-06T06:06:06.003Z,7.65
2023-05-06T06:07:06.024Z,7.70
2023-05-06T06:08:06.017Z,7.70
2023-05-06T06:09:06.001Z,8.04
2023-05-06T06:10:06.010Z,8.07
2023-05-06T06:11:05.990Z,7.86
2023-05-06T06:12:05.968Z,7.89
2023-05-06T06:13:06.082Z,7.86
2023-05-06T06:14:05.968Z,7.81
2023-05-06T06:15:05.964Z,7.82
2023-05-06T06:16:05.979Z,7.70
2023-05-06T06:17:05.947Z,7.44
2023-05-06T06:18:05.980Z,7.32
2023-05-06T06:19:05.934Z,7.28
2023-05-06T06:20:05.945Z,7.35
2023-05-06T06:21:06.017Z,7.29
2023-05-06T06:22:06.046Z,7.15
2023-05-06T06:23:06.088Z,7.27
2023-05-06T06:24:06.137Z,7.07
2023-05-06T06:25:06.233Z,7.00
2023-05-06T06:26:06.227Z,6.83
2023-05-06T06:27:06.272Z,6.86
2023-05-06T06:28:06.332Z,6.87
2023-05-06T06:29:06.379Z,6.68
2023-05-06T06:30:06.418Z,6.74
2023-05-06T06:31:06.472Z,6.59
2023-05-06T06:32:06.601Z,6.73
2023-05-06T06:33:06.693Z,6.74
2023-05-06T06:34:06.645Z,6.69
2023-05-06T06:35:06.705Z,6.82
2023-05-06T06:36:06.746Z,6.66
2023-05-06T06:37:07.953Z,6.61
2023-05-06T06:38:06.879Z,6.41
2023-05-06T06:39:07.013Z,6.42
2023-05-06T06:40:06.993Z,6.41
2023-05-06T06:41:07.045Z,6.78
2023-05-06T06:42:07.092Z,6.64
2023-05-06T06:43:07.140Z,6.89
2023-05-06T06:44:07.211Z,6.96
2023-05-06T06:45:07.314Z,6.82
2023-05-06T06:46:07.355Z,6.84
2023-05-06T06:47:07.378Z,6.87
2023-05-06T06:48:07.539Z,6.79
2023-05-06T06:49:07.484Z,6.73
2023-05-06T06:50:07.559Z,6.76
2023-05-06T06:51:07.641Z,6.68
2023-05-06T06:52:07.677Z,6.79
2023-05-06T06:53:07.758Z,6.85
2023-05-06T06:54:07.812Z,6.71
2023-05-06T06:55:08.108Z,6.64
2023-05-06T06:56:07.931Z,6.61
2023-05-06T06:57:07.997Z,6.43
2023-05-06T06:58:08.032Z,6.33
2023-05-06T06:59:08.115Z,6.04
2023-05-06T07:00:08.178Z,6.03
2023-05-06T07:01:08.234Z,5.89
2023-05-06T07:02:08.263Z,6.00
2023-05-06T07:03:08.376Z,5.95
2023-05-06T07:04:08.382Z,6.23
2023-05-06T07:05:08.571Z,6.32
2023-05-06T07:06:08.445Z,6.39
2023-05-06T07:07:08.513Z,6.68
2023-05-06T07:08:08.544Z,7.05
2023-05-06T07:09:08.620Z,7.03
2023-05-06T07:10:08.625Z,6.82
2023-05-06T07:11:08.676Z,6.76
2023-05-06T07:12:08.717Z,6.42
2023-05-06T07:13:08.824Z,6.24
2023-05-06T07:14:08.807Z,5.94
2023-05-06T07:15:09.172Z,5.77
2023-05-06T07:16:08.861Z,5.62
2023-05-06T07:17:08.970Z,5.57
2023-05-06T07:18:08.954Z,5.97
2023-05-06T07:19:08.958Z,6.20
2023-05-06T07:20:08.995Z,7.09
2023-05-06T07:21:09.038Z,7.51
2023-05-06T07:22:09.037Z,7.63
2023-05-06T07:23:09.061Z,7.65
2023-05-06T07:24:09.081Z,7.44
2023-05-06T07:25:09.427Z,7.34
2023-05-06T07:26:09.103Z,7.29
2023-05-06T07:27:09.185Z,7.15
2023-05-06T07:28:09.151Z,7.22
2023-05-06T07:29:09.161Z,7.04
2023-05-06T07:30:09.181Z,7.10
2023-05-06T07:31:09.209Z,7.09
2023-05-06T07:32:09.175Z,7.12
2023-05-06T07:33:09.189Z,7.31
2023-05-06T07:34:09.195Z,7.43
2023-05-06T07:35:09.473Z,7.54
2023-05-06T07:36:09.200Z,7.58
2023-05-06T07:37:09.200Z,7.64
2023-05-06T07:38:09.223Z,7.47
2023-05-06T07:39:09.210Z,7.47
2023-05-06T07:40:09.217Z,7.41
2023-05-06T07:41:09.197Z,7.41
2023-05-06T07:42:09.209Z,7.34
2023-05-06T07:43:09.269Z,7.43
2023-05-06T07:44:09.205Z,7.31
2023-05-06T07:45:09.395Z,7.46
2023-05-06T07:46:09.215Z,7.28
2023-05-06T07:47:09.427Z,7.11
2023-05-06T07:48:09.235Z,7.22
2023-05-06T07:49:09.222Z,7.19
2023-05-06T07:50:09.241Z,7.09
2023-05-06T07:51:09.214Z,7.08
2023-05-06T07:52:09.236Z,7.18
2023-05-06T07:53:09.221Z,7.09
2023-05-06T07:54:09.217Z,7.18
2023-05-06T07:55:09.577Z,6.93
2023-05-06T07:56:09.235Z,6.82
2023-05-06T07:57:09.235Z,6.97
2023-05-06T07:58:09.229Z,7.04
2023-05-06T07:59:09.291Z,6.66
2023-05-06T08:00:09.245Z,6.46
2023-05-06T08:01:09.233Z,6.66
2023-05-06T08:02:09.262Z,6.55
2023-05-06T08:03:09.341Z,6.48
2023-05-06T08:04:09.295Z,6.53
2023-05-06T08:05:09.507Z,6.51
2023-05-06T08:06:09.221Z,6.56
2023-05-06T08:07:09.233Z,6.37
2023-05-06T08:08:09.215Z,6.27
2023-05-06T08:09:10.152Z,6.38
2023-05-06T08:10:09.245Z,6.37
2023-05-06T08:11:09.239Z,6.21
2023-05-06T08:12:09.230Z,6.26
2023-05-06T08:13:09.238Z,6.37
2023-05-06T08:14:09.219Z,6.37
2023-05-06T08:15:09.580Z,6.49
2023-05-06T08:16:09.313Z,6.50
2023-05-06T08:17:09.224Z,6.44
2023-05-06T08:18:21.068Z,6.60
2023-05-06T08:19:10.236Z,6.61
2023-05-06T08:20:09.236Z,6.63
2023-05-06T08:21:09.217Z,6.60
2023-05-06T08:22:09.203Z,6.51
2023-05-06T08:23:09.195Z,6.52
2023-05-06T08:24:09.204Z,6.55
2023-05-06T08:25:09.614Z,6.59
2023-05-06T08:26:09.185Z,6.33
2023-05-06T08:27:09.181Z,6.38
2023-05-06T08:28:09.174Z,6.31
2023-05-06T08:29:09.155Z,6.47
2023-05-06T08:30:09.160Z,6.45
2023-05-06T08:31:09.207Z,6.55
2023-05-06T08:32:09.172Z,6.42
2023-05-06T08:33:09.199Z,6.54
2023-05-06T08:34:09.115Z,6.44
2023-05-06T08:35:09.467Z,6.17
2023-05-06T08:36:09.103Z,6.17
2023-05-06T08:37:09.099Z,6.31
2023-05-06T08:38:09.128Z,6.18
2023-05-06T08:39:09.089Z,6.39
2023-05-06T08:40:09.091Z,6.39
2023-05-06T08:41:09.070Z,6.26
2023-05-06T08:42:09.067Z,6.13
2023-05-06T08:43:09.071Z,6.15
2023-05-06T08:44:09.060Z,6.29
2023-05-06T08:45:09.240Z,6.22
2023-05-06T08:46:09.079Z,6.24
2023-05-06T08:47:09.058Z,6.34
2023-05-06T08:48:09.058Z,6.15
2023-05-06T08:49:09.034Z,6.23
2023-05-06T08:50:09.040Z,6.22
2023-05-06T08:51:09.012Z,6.12
2023-05-06T08:52:09.004Z,6.17
2023-05-06T08:53:08.994Z,6.18
2023-05-06T08:54:08.987Z,6.27
2023-05-06T08:55:09.172Z,6.37
2023-05-06T08:56:08.986Z,6.29
2023-05-06T08:57:10.992Z,6.34
2023-05-06T08:58:08.957Z,6.38
2023-05-06T08:59:08.975Z,6.39
2023-05-06T09:00:08.944Z,6.27
2023-05-06T09:01:08.989Z,6.30
2023-05-06T09:02:08.972Z,6.40
2023-05-06T09:03:09.196Z,6.36
2023-05-06T09:04:08.959Z,6.44
2023-05-06T09:05:09.144Z,6.31
2023-05-06T09:06:08.918Z,6.22
2023-05-06T09:07:08.916Z,6.44
2023-05-06T09:08:08.921Z,6.24
2023-05-06T09:09:08.903Z,6.26
2023-05-06T09:10:09.210Z,6.28
2023-05-06T09:11:08.889Z,6.20
2023-05-06T09:12:08.868Z,6.14
2023-05-06T09:13:08.925Z,6.39
2023-05-06T09:14:08.852Z,6.29
2023-05-06T09:15:09.205Z,6.13
2023-05-06T09:16:08.853Z,6.43
2023-05-06T09:17:08.985Z,6.56
2023-05-06T09:18:08.880Z,6.62
2023-05-06T09:19:08.945Z,6.38
2023-05-06T09:20:08.829Z,6.47
2023-05-06T09:21:08.820Z,6.35
2023-05-06T09:22:08.808Z,6.72
2023-05-06T09:23:08.795Z,6.64
2023-05-06T09:24:08.789Z,6.60
2023-05-06T09:25:08.940Z,6.59
2023-05-06T09:26:08.816Z,6.39
2023-05-06T09:27:10.646Z,6.39
2023-05-06T09:28:08.791Z,6.40
2023-05-06T09:29:08.756Z,6.44
2023-05-06T09:30:08.770Z,6.46
2023-05-06T09:31:08.805Z,6.55
2023-05-06T09:32:08.755Z,6.61
2023-05-06T09:33:08.859Z,6.51
2023-05-06T09:34:08.746Z,6.30
2023-05-06T09:35:08.930Z,6.52
2023-05-06T09:36:08.742Z,6.79
2023-05-06T09:37:08.738Z,6.55
2023-05-06T09:38:08.762Z,6.61
2023-05-06T09:39:08.752Z,6.56
2023-05-06T09:40:08.771Z,6.37
2023-05-06T09:41:08.792Z,6.37
2023-05-06T09:42:08.798Z,6.41
2023-05-06T09:43:08.781Z,6.39
2023-05-06T09:44:08.802Z,6.11
2023-05-06T09:45:08.925Z,5.97
2023-05-06T09:46:08.921Z,5.83
2023-05-06T09:47:08.814Z,5.79
2023-05-06T09:48:08.852Z,5.74
2023-05-06T09:49:08.816Z,5.59
2023-05-06T09:50:08.826Z,5.64
2023-05-06T09:51:08.942Z,5.57
2023-05-06T09:52:08.804Z,5.61
2023-05-06T09:53:08.818Z,5.60
2023-05-06T09:54:08.810Z,5.57
2023-05-06T09:55:08.981Z,5.48
2023-05-06T09:56:08.816Z,5.48
2023-05-06T09:57:08.828Z,5.71
2023-05-06T09:58:08.809Z,5.69
2023-05-06T09:59:08.825Z,5.55
2023-05-06T10:00:08.830Z,5.54
2023-05-06T10:01:08.907Z,5.44
2023-05-06T10:02:08.871Z,5.54
2023-05-06T10:03:08.947Z,5.67
2023-05-06T10:04:09.210Z,5.70
2023-05-06T10:05:09.153Z,5.76
2023-05-06T10:06:08.853Z,5.78
2023-05-06T10:07:08.912Z,5.70
2023-05-06T10:08:08.838Z,5.74
2023-05-06T10:09:08.864Z,5.98
2023-05-06T10:10:08.860Z,5.95
2023-05-06T10:11:08.864Z,5.87
2023-05-06T10:12:08.869Z,5.92
2023-05-06T10:13:08.898Z,5.77
2023-05-06T10:14:08.862Z,5.77
2023-05-06T10:15:09.225Z,5.77
2023-05-06T10:16:08.926Z,5.88
2023-05-06T10:17:08.852Z,5.81
2023-05-06T10:18:08.868Z,5.75
2023-05-06T10:19:08.855Z,5.74
2023-05-06T10:20:08.844Z,5.87
2023-05-06T10:21:08.841Z,5.81
2023-05-06T10:22:08.830Z,5.99
2023-05-06T10:23:08.896Z,5.98
2023-05-06T10:24:08.842Z,6.06
2023-05-06T10:25:09.067Z,6.07
2023-05-06T10:26:08.876Z,6.15
2023-05-06T10:27:08.850Z,6.24
2023-05-06T10:28:09.200Z,6.41
2023-05-06T10:29:09.873Z,6.41
2023-05-06T10:30:08.865Z,6.35
2023-05-06T10:31:08.878Z,6.33
2023-05-06T10:32:08.847Z,6.41
2023-05-06T10:33:08.862Z,6.50
2023-05-06T10:34:08.832Z,6.61
2023-05-06T10:35:08.953Z,6.48
2023-05-06T10:36:08.836Z,6.34
2023-05-06T10:37:08.807Z,6.35
2023-05-06T10:38:08.819Z,6.23
2023-05-06T10:39:08.858Z,6.37
2023-05-06T10:40:08.790Z,6.13
2023-05-06T10:41:08.775Z,6.30
2023-05-06T10:42:08.786Z,6.42
2023-05-06T10:43:08.787Z,6.36
2023-05-06T10:44:08.819Z,6.37
2023-05-06T10:45:08.900Z,6.21
2023-05-06T10:46:09.046Z,6.03
2023-05-06T10:47:08.845Z,6.03
2023-05-06T10:48:08.939Z,6.15
2023-05-06T10:49:08.927Z,6.27
2023-05-06T10:50:08.965Z,6.12
2023-05-06T10:51:08.973Z,6.23
2023-05-06T10:52:09.017Z,6.33
2023-05-06T10:53:09.036Z,6.13
2023-05-06T10:54:09.076Z,6.15
2023-05-06T10:55:09.480Z,6.13
2023-05-06T10:56:09.149Z,6.16
2023-05-06T10:57:09.176Z,6.00
2023-05-06T10:58:09.218Z,6.09
2023-05-06T10:59:09.222Z,5.98
2023-05-06T11:00:09.235Z,5.98
2023-05-06T11:01:09.238Z,6.00
2023-05-06T11:02:09.297Z,5.95
2023-05-06T11:03:09.330Z,6.01
2023-05-06T11:04:09.330Z,5.98
2023-05-06T11:05:09.591Z,5.93
2023-05-06T11:06:09.376Z,5.77
2023-05-06T11:07:09.413Z,5.59
2023-05-06T11:08:09.430Z,5.50
2023-05-06T11:09:09.458Z,5.58
2023-05-06T11:10:09.459Z,5.59
2023-05-06T11:11:09.534Z,5.41
2023-05-06T11:12:09.463Z,5.35
2023-05-06T11:13:09.600Z,5.23
2023-05-06T11:14:09.495Z,5.32
2023-05-06T11:15:09.768Z,5.36
2023-05-06T11:16:09.630Z,5.22
2023-05-06T11:17:09.808Z,5.28
2023-05-06T11:18:09.621Z,5.16
2023-05-06T11:19:09.635Z,5.15
2023-05-06T11:20:09.808Z,4.95
2023-05-06T11:21:09.662Z,4.99
2023-05-06T11:22:09.691Z,5.13
2023-05-06T11:23:09.731Z,5.09
2023-05-06T11:24:09.766Z,5.05
2023-05-06T11:25:09.816Z,4.90
2023-05-06T11:26:09.853Z,4.82
2023-05-06T11:27:09.961Z,4.76
2023-05-06T11:28:09.945Z,4.84
2023-05-06T11:29:09.970Z,4.98
2023-05-06T11:30:10.174Z,4.84
2023-05-06T11:31:10.051Z,4.72
2023-05-06T11:32:10.082Z,4.85
2023-05-06T11:33:10.213Z,4.79
2023-05-06T11:34:10.197Z,4.89
2023-05-06T11:35:10.195Z,4.81
2023-05-06T11:36:10.243Z,4.84
2023-05-06T11:37:10.287Z,4.60
2023-05-06T11:38:10.390Z,4.47
2023-05-06T11:39:10.359Z,4.42
2023-05-06T11:40:10.610Z,4.49
2023-05-06T11:41:10.490Z,4.59
2023-05-06T11:42:10.594Z,4.66
2023-05-06T11:43:10.654Z,4.60
2023-05-06T11:44:11.622Z,4.57
2023-05-06T11:45:10.728Z,4.42
2023-05-06T11:46:10.802Z,4.40
2023-05-06T11:47:10.838Z,4.44
2023-05-06T11:48:10.909Z,4.41
2023-05-06T11:49:10.960Z,4.38
2023-05-06T11:50:11.426Z,4.31
2023-05-06T11:51:11.112Z,4.34
2023-05-06T11:52:11.181Z,4.45
2023-05-06T11:53:11.232Z,4.37
2023-05-06T11:54:11.292Z,4.31
2023-05-06T11:55:11.341Z,4.16
2023-05-06T11:56:11.406Z,4.32
2023-05-06T11:57:11.465Z,4.26
2023-05-06T11:58:11.499Z,4.24
2023-05-06T11:59:11.569Z,4.19
2023-05-06T12:00:11.814Z,4.24
2023-05-06T12:01:11.690Z,4.21
2023-05-06T12:02:11.751Z,4.06
2023-05-06T12:03:11.872Z,4.06
2023-05-06T12:04:12.035Z,4.39
2023-05-06T12:05:11.937Z,4.25
2023-05-06T12:06:11.992Z,4.24
2023-05-06T12:07:12.060Z,4.21
2023-05-06T12:08:23.511Z,4.11
2023-05-06T12:09:13.145Z,4.12
2023-05-06T12:10:12.431Z,4.11
2023-05-06T12:11:12.122Z,4.14
2023-05-06T12:12:12.108Z,4.01
2023-05-06T12:13:12.166Z,3.99
2023-05-06T12:14:12.105Z,4.04
2023-05-06T12:15:12.144Z,4.02
2023-05-06T12:16:12.139Z,4.08
2023-05-06T12:17:12.078Z,4.06
2023-05-06T12:18:12.069Z,4.00
2023-05-06T12:19:12.126Z,4.05
2023-05-06T12:20:12.321Z,4.07
2023-05-06T12:21:12.263Z,4.08
2023-05-06T12:22:12.355Z,4.16
2023-05-06T12:23:12.393Z,4.21
2023-05-06T12:24:12.474Z,4.24
2023-05-06T12:25:12.564Z,4.02
2023-05-06T12:26:12.561Z,4.04
2023-05-06T12:27:12.639Z,4.00
2023-05-06T12:28:12.678Z,4.01
2023-05-06T12:29:12.748Z,3.95
2023-05-06T12:30:12.938Z,3.79
2023-05-06T12:31:12.953Z,3.71
2023-05-06T12:32:12.909Z,3.75
2023-05-06T12:33:12.997Z,3.79
2023-05-06T12:34:13.027Z,3.88
2023-05-06T12:35:13.090Z,3.64
2023-05-06T12:36:13.138Z,3.64
2023-05-06T12:37:13.200Z,3.63
2023-05-06T12:38:13.282Z,3.71
2023-05-06T12:39:13.347Z,3.64
2023-05-06T12:40:13.475Z,3.63
2023-05-06T12:41:13.451Z,3.64
2023-05-06T12:42:13.493Z,3.61
2023-05-06T12:43:13.569Z,3.58
2023-05-06T12:44:13.611Z,3.57
2023-05-06T12:45:13.727Z,3.55
2023-05-06T12:46:13.740Z,3.53
2023-05-06T12:47:13.833Z,3.51
2023-05-06T12:48:13.899Z,3.53
2023-05-06T12:49:13.908Z,3.45
2023-05-06T12:50:14.087Z,3.47
2023-05-06T12:51:14.017Z,3.50
2023-05-06T12:52:14.080Z,3.49
2023-05-06T12:53:14.152Z,3.47
2023-05-06T12:54:14.206Z,3.52
2023-05-06T12:55:14.250Z,3.41
2023-05-06T12:56:14.317Z,3.37
2023-05-06T12:57:14.418Z,3.36
2023-05-06T12:58:14.419Z,3.42
2023-05-06T12:59:14.492Z,3.34
2023-05-06T13:00:14.686Z,3.37
2023-05-06T13:01:14.616Z,3.35
2023-05-06T13:02:14.700Z,3.30
2023-05-06T13:03:14.909Z,3.31
2023-05-06T13:04:14.785Z,3.23
2023-05-06T13:05:14.824Z,3.30
2023-05-06T13:06:14.905Z,3.27
2023-05-06T13:07:14.955Z,3.32
2023-05-06T13:08:15.005Z,3.33
2023-05-06T13:09:15.498Z,3.19
2023-05-06T13:10:15.390Z,3.23
2023-05-06T13:11:15.226Z,3.15
2023-05-06T13:12:15.265Z,3.17
2023-05-06T13:13:15.448Z,3.21
2023-05-06T13:14:15.354Z,3.13
2023-05-06T13:15:15.412Z,3.21
2023-05-06T13:16:15.473Z,3.16
2023-05-06T13:17:15.727Z,3.21
2023-05-06T13:18:15.591Z,3.22
2023-05-06T13:19:30.790Z,3.23